Darstellungsparameter: Aktuell verwendete Einstellungen:
Skalierung der Graphiken ... ?
xyx+y,   Skalierungsfaktor:      Skalierung: Modus: x, Faktor: 1
Darstellungszeitraum ... ?
Vom - - bis: - -   Zeitraum: 02.09.2019 - 03.09.2019
Min/Max/Avg-Anzeige ... ?
Zeige MMA aktuell
Zeige MMA Monat
Zeige MMA alles
Zeige --A aktuell
Zeige --A Monat
Zeige --A alles
Keine MMA-Anzeige
MMA:
Keine MMA-Graphiken
MMA-Basis: 02.09.2019 - 03.09.2019
Quicknavigation für Darstellung... ?
Tage:      1T, 2T, 3T, 5T -1T -2T -3T -5T +1T +2T +3T +5T
Wochen: 1W, 2W, 3W -1W -2W -3W +1W +2W +3W
Monate: 1M, 3M, 6M -1M -3M -6M +1M +3M +6M
Jahre:    1J, 3J, 5J, 10J -1J -3J -5J -10J +1J +3J +5J +10J
Nutze für die Darstellung ... ?
Originaldaten oder Mittelwerte auf ...
Stundenbasis Tagesbasis Wochenbasis
Monatsbasis Jahresbasis      Datenbasis: Original-Daten
Darstellen als:
Statistik (Auto) Statistik J:M      Darstellung:
Zur Graphik,    zurück zur Übersicht aller Sensoren.
 
Tabellarische Datenbersicht: ?
 
Sensor: Nr:Datum:Temp:Feuchte:Taupunkt:
Aussen-T/F 1 02-09-2019 00:00:00 15.1 C 75 % 10.71 C
2 02-09-2019 00:05:00 14.9 C 75 % 10.51 C
3 02-09-2019 00:10:00 14.8 C 75 % 10.42 C
4 02-09-2019 00:15:00 14.7 C 75 % 10.32 C
5 02-09-2019 00:20:00 14.6 C 75 % 10.22 C
6 02-09-2019 00:25:00 14.5 C 75 % 10.13 C
7 02-09-2019 00:30:00 14.4 C 75 % 10.03 C
8 02-09-2019 00:35:00 14.3 C 75 % 9.93 C
9 02-09-2019 00:40:00 14.2 C 76 % 10.03 C
10 02-09-2019 00:45:00 14.1 C 76 % 9.94 C
11 02-09-2019 00:50:00 13.9 C 77 % 9.94 C
12 02-09-2019 00:55:00 13.8 C 77 % 9.84 C
13 02-09-2019 01:00:00 13.7 C 77 % 9.75 C
14 02-09-2019 01:05:00 13.7 C 78 % 9.94 C
15 02-09-2019 01:10:00 13.6 C 78 % 9.84 C
16 02-09-2019 01:15:00 13.4 C 78 % 9.65 C
17 02-09-2019 01:20:00 13.3 C 78 % 9.55 C
18 02-09-2019 01:25:00 13.2 C 78 % 9.45 C
19 02-09-2019 01:30:00 13.1 C 78 % 9.36 C
20 02-09-2019 01:35:00 13.1 C 78 % 9.36 C
21 02-09-2019 01:40:00 13.1 C 77 % 9.16 C
22 02-09-2019 01:45:00 13.1 C 78 % 9.36 C
23 02-09-2019 01:50:00 13.1 C 78 % 9.36 C
24 02-09-2019 01:55:00 13.1 C 78 % 9.36 C
25 02-09-2019 02:00:00 13.1 C 78 % 9.36 C
Sensor: Nr:Datum:Temp:Feuchte:Taupunkt:
Aussen-T/F 26 02-09-2019 02:05:00 13.1 C 79 % 9.54 C
27 02-09-2019 02:10:00 13.2 C 80 % 9.83 C
28 02-09-2019 02:15:00 13.2 C 80 % 9.83 C
29 02-09-2019 02:20:00 13.3 C 81 % 10.11 C
30 02-09-2019 02:25:00 13.3 C 80 % 9.93 C
31 02-09-2019 02:30:00 13.4 C 80 % 10.02 C
32 02-09-2019 02:35:00 13.4 C 81 % 10.21 C
33 02-09-2019 02:40:00 13.4 C 81 % 10.21 C
34 02-09-2019 02:45:00 13.4 C 81 % 10.21 C
35 02-09-2019 02:50:00 13.4 C 81 % 10.21 C
36 02-09-2019 02:55:00 13.4 C 81 % 10.21 C
37 02-09-2019 03:00:00 13.4 C 82 % 10.39 C
38 02-09-2019 03:05:00 13.4 C 82 % 10.39 C
39 02-09-2019 03:10:00 13.3 C 83 % 10.48 C
40 02-09-2019 03:15:00 13.3 C 83 % 10.48 C
41 02-09-2019 03:20:00 13.3 C 83 % 10.48 C
42 02-09-2019 03:25:00 13.2 C 83 % 10.38 C
43 02-09-2019 03:30:00 13.1 C 83 % 10.28 C
44 02-09-2019 03:35:00 12.9 C 82 % 9.9 C
45 02-09-2019 03:40:00 12.8 C 82 % 9.81 C
46 02-09-2019 03:45:00 12.7 C 82 % 9.71 C
47 02-09-2019 03:50:00 12.5 C 82 % 9.51 C
48 02-09-2019 03:55:00 12.4 C 83 % 9.6 C
49 02-09-2019 04:00:00 12.3 C 83 % 9.5 C
50 02-09-2019 04:05:00 12.3 C 83 % 9.5 C
Sensor: Nr:Datum:Temp:Feuchte:Taupunkt:
Aussen-T/F 51 02-09-2019 04:10:00 12.2 C 83 % 9.4 C
52 02-09-2019 04:15:00 12.2 C 83 % 9.4 C
53 02-09-2019 04:20:00 12.1 C 84 % 9.48 C
54 02-09-2019 04:25:00 12 C 83 % 9.21 C
55 02-09-2019 04:30:00 11.9 C 84 % 9.29 C
56 02-09-2019 04:35:00 11.8 C 85 % 9.36 C
57 02-09-2019 04:40:00 11.8 C 85 % 9.36 C
58 02-09-2019 04:45:00 11.8 C 85 % 9.36 C
59 02-09-2019 04:50:00 11.8 C 85 % 9.36 C
60 02-09-2019 04:55:00 11.8 C 84 % 9.19 C
61 02-09-2019 05:00:00 11.7 C 85 % 9.27 C
62 02-09-2019 05:05:00 11.7 C 85 % 9.27 C
63 02-09-2019 05:10:00 11.6 C 85 % 9.17 C
64 02-09-2019 05:15:00 11.5 C 85 % 9.07 C
65 02-09-2019 05:20:00 11.4 C 86 % 9.14 C
66 02-09-2019 05:25:00 11.3 C 86 % 9.05 C
67 02-09-2019 05:30:00 11.2 C 86 % 8.95 C
68 02-09-2019 05:35:00 11.1 C 86 % 8.85 C
69 02-09-2019 05:40:00 10.9 C 86 % 8.65 C
70 02-09-2019 05:45:00 10.8 C 87 % 8.73 C
71 02-09-2019 05:50:00 10.7 C 87 % 8.63 C
72 02-09-2019 05:55:00 10.7 C 87 % 8.63 C
73 02-09-2019 06:00:00 10.6 C 88 % 8.7 C
74 02-09-2019 06:05:00 10.6 C 88 % 8.7 C
75 02-09-2019 06:10:00 10.4 C 88 % 8.5 C
Sensor: Nr:Datum:Temp:Feuchte:Taupunkt:
Aussen-T/F 76 02-09-2019 06:15:00 10.3 C 88 % 8.4 C
77 02-09-2019 06:20:00 10.2 C 88 % 8.3 C
78 02-09-2019 06:25:00 10.1 C 89 % 8.37 C
79 02-09-2019 06:30:00 10.1 C 90 % 8.54 C
80 02-09-2019 06:35:00 10.1 C 90 % 8.54 C
81 02-09-2019 06:40:00 10 C 90 % 8.44 C
82 02-09-2019 06:45:00 9.9 C 90 % 8.34 C
83 02-09-2019 06:50:00 9.8 C 90 % 8.24 C
84 02-09-2019 06:55:00 9.7 C 90 % 8.14 C
85 02-09-2019 07:00:00 9.7 C 90 % 8.14 C
86 02-09-2019 07:05:00 9.7 C 91 % 8.3 C
87 02-09-2019 07:10:00 9.7 C 91 % 8.3 C
88 02-09-2019 07:15:00 9.7 C 92 % 8.46 C
89 02-09-2019 07:20:00 9.7 C 92 % 8.46 C
90 02-09-2019 07:25:00 9.7 C 92 % 8.46 C
91 02-09-2019 07:30:00 9.7 C 92 % 8.46 C
92 02-09-2019 07:35:00 9.7 C 92 % 8.46 C
93 02-09-2019 07:40:00 9.8 C 92 % 8.56 C
94 02-09-2019 07:45:00 9.8 C 92 % 8.56 C
95 02-09-2019 07:50:00 9.8 C 92 % 8.56 C
96 02-09-2019 07:55:00 9.8 C 92 % 8.56 C
97 02-09-2019 08:00:00 9.9 C 92 % 8.66 C
98 02-09-2019 08:05:00 9.9 C 93 % 8.82 C
99 02-09-2019 08:10:00 9.9 C 93 % 8.82 C
100 02-09-2019 08:15:00 9.9 C 93 % 8.82 C
Sensor: Nr:Datum:Temp:Feuchte:Taupunkt:
Aussen-T/F 101 02-09-2019 08:20:00 9.9 C 93 % 8.82 C
102 02-09-2019 08:25:00 9.9 C 93 % 8.82 C
103 02-09-2019 08:30:00 10 C 93 % 8.92 C
104 02-09-2019 08:35:00 10.1 C 93 % 9.02 C
105 02-09-2019 08:40:00 10.1 C 93 % 9.02 C
106 02-09-2019 08:45:00 10.2 C 93 % 9.12 C
107 02-09-2019 08:50:00 10.3 C 93 % 9.22 C
108 02-09-2019 08:55:00 10.3 C 93 % 9.22 C
109 02-09-2019 09:00:00 10.3 C 93 % 9.22 C
110 02-09-2019 09:05:00 10.4 C 93 % 9.32 C
111 02-09-2019 09:10:00 10.4 C 93 % 9.32 C
112 02-09-2019 09:15:00 10.6 C 93 % 9.52 C
113 02-09-2019 09:20:00 10.7 C 93 % 9.62 C
114 02-09-2019 09:25:00 10.8 C 93 % 9.71 C
115 02-09-2019 09:30:00 10.9 C 93 % 9.81 C
116 02-09-2019 09:35:00 10.9 C 92 % 9.65 C
117 02-09-2019 09:40:00 11.1 C 92 % 9.85 C
118 02-09-2019 09:45:00 11.2 C 92 % 9.95 C
119 02-09-2019 09:50:00 11.3 C 92 % 10.05 C
120 02-09-2019 09:55:00 11.4 C 92 % 10.15 C
121 02-09-2019 10:00:00 11.6 C 92 % 10.35 C
122 02-09-2019 10:05:00 11.8 C 92 % 10.54 C
123 02-09-2019 10:10:00 12 C 92 % 10.74 C
124 02-09-2019 10:15:00 12.3 C 91 % 10.87 C
125 02-09-2019 10:20:00 12.5 C 91 % 11.07 C
Sensor: Nr:Datum:Temp:Feuchte:Taupunkt:
Aussen-T/F 126 02-09-2019 10:25:00 12.7 C 90 % 11.1 C
127 02-09-2019 10:30:00 12.9 C 89 % 11.13 C
128 02-09-2019 10:35:00 13.2 C 88 % 11.26 C
129 02-09-2019 10:40:00 13.5 C 87 % 11.38 C
130 02-09-2019 10:45:00 13.7 C 85 % 11.23 C
131 02-09-2019 10:50:00 13.9 C 82 % 10.88 C
132 02-09-2019 10:55:00 14.2 C 78 % 10.42 C
133 02-09-2019 11:00:00 14.6 C 74 % 10.02 C
134 02-09-2019 11:05:00 15 C 73 % 10.2 C
135 02-09-2019 11:10:00 15.5 C 69 % 9.84 C
136 02-09-2019 11:15:00 15.9 C 68 % 10.01 C
137 02-09-2019 11:20:00 16.2 C 67 % 10.07 C
138 02-09-2019 11:25:00 16.4 C 66 % 10.04 C
139 02-09-2019 11:30:00 16.6 C 65 % 10 C
140 02-09-2019 11:35:00 16.7 C 64 % 9.86 C
141 02-09-2019 11:40:00 16.8 C 64 % 9.96 C
142 02-09-2019 11:45:00 16.9 C 63 % 9.82 C
143 02-09-2019 11:50:00 16.9 C 62 % 9.58 C
144 02-09-2019 11:55:00 16.9 C 62 % 9.58 C
145 02-09-2019 12:00:00 16.8 C 62 % 9.49 C
146 02-09-2019 12:05:00 17 C 63 % 9.91 C
147 02-09-2019 12:10:00 17.2 C 60 % 9.37 C
148 02-09-2019 12:15:00 17.3 C 60 % 9.47 C
149 02-09-2019 12:20:00 17.4 C 61 % 9.81 C
150 02-09-2019 12:25:00 17.6 C 56 % 8.73 C
Sensor: Nr:Datum:Temp:Feuchte:Taupunkt:
Aussen-T/F 151 02-09-2019 12:30:00 17.7 C 53 % 8.01 C
152 02-09-2019 12:35:00 17.7 C 54 % 8.28 C
153 02-09-2019 12:40:00 17.7 C 54 % 8.28 C
154 02-09-2019 12:45:00 17.9 C 52 % 7.91 C
155 02-09-2019 12:50:00 18 C 51 % 7.72 C
156 02-09-2019 12:55:00 18.1 C 52 % 8.1 C
157 02-09-2019 13:00:00 18.2 C 53 % 8.47 C
158 02-09-2019 13:05:00 18.3 C 53 % 8.56 C
159 02-09-2019 13:10:00 18.4 C 54 % 8.93 C
160 02-09-2019 13:15:00 18.5 C 52 % 8.47 C
161 02-09-2019 13:20:00 18.6 C 49 % 7.69 C
162 02-09-2019 13:25:00 18.7 C 49 % 7.78 C
163 02-09-2019 13:30:00 18.8 C 49 % 7.87 C
164 02-09-2019 13:35:00 18.8 C 50 % 8.17 C
165 02-09-2019 13:40:00 18.9 C 49 % 7.96 C
166 02-09-2019 13:45:00 19 C 48 % 7.75 C
167 02-09-2019 13:50:00 19.1 C 45 % 6.9 C
168 02-09-2019 13:55:00 19.2 C 45 % 6.99 C
169 02-09-2019 14:00:00 19.4 C 48 % 8.12 C
170 02-09-2019 14:05:00 19.5 C 49 % 8.51 C
171 02-09-2019 14:10:00 19.5 C 46 % 7.58 C
172 02-09-2019 14:15:00 19.6 C 48 % 8.3 C
173 02-09-2019 14:20:00 19.8 C 46 % 7.86 C
174 02-09-2019 14:25:00 19.9 C 44 % 7.3 C
175 02-09-2019 14:30:00 19.9 C 46 % 7.95 C
Sensor: Nr:Datum:Temp:Feuchte:Taupunkt:
Aussen-T/F 176 02-09-2019 14:35:00 20 C 45 % 7.72 C
177 02-09-2019 14:40:00 20 C 46 % 8.04 C
178 02-09-2019 14:45:00 20.1 C 46 % 8.13 C
179 02-09-2019 14:50:00 20.1 C 47 % 8.45 C
180 02-09-2019 14:55:00 20.2 C 44 % 7.57 C
181 02-09-2019 15:00:00 20.2 C 45 % 7.9 C
182 02-09-2019 15:05:00 20.3 C 45 % 7.99 C
183 02-09-2019 15:10:00 20.4 C 44 % 7.75 C
184 02-09-2019 15:15:00 20.4 C 45 % 8.08 C
185 02-09-2019 15:20:00 20.3 C 45 % 7.99 C
186 02-09-2019 15:25:00 20.1 C 46 % 8.13 C
187 02-09-2019 15:30:00 20 C 45 % 7.72 C
188 02-09-2019 15:35:00 19.9 C 46 % 7.95 C
189 02-09-2019 15:40:00 19.8 C 47 % 8.17 C
190 02-09-2019 15:45:00 19.9 C 46 % 7.95 C
191 02-09-2019 15:50:00 20.3 C 45 % 7.99 C
192 02-09-2019 15:55:00 20.5 C 44 % 7.84 C
193 02-09-2019 16:00:00 20.8 C 43 % 7.77 C
194 02-09-2019 16:05:00 21.1 C 43 % 8.04 C
195 02-09-2019 16:10:00 21.3 C 43 % 8.22 C
196 02-09-2019 16:15:00 21.4 C 42 % 7.97 C
197 02-09-2019 16:20:00 21.6 C 42 % 8.15 C
198 02-09-2019 16:25:00 21.7 C 43 % 8.58 C
199 02-09-2019 16:30:00 21.8 C 41 % 7.97 C
200 02-09-2019 16:35:00 22.1 C 40 % 7.88 C
Sensor: Nr:Datum:Temp:Feuchte:Taupunkt:
Aussen-T/F 201 02-09-2019 16:40:00 22.2 C 40 % 7.97 C
202 02-09-2019 16:45:00 22.4 C 42 % 8.87 C
203 02-09-2019 16:50:00 22.6 C 40 % 8.33 C
204 02-09-2019 16:55:00 22.7 C 40 % 8.42 C
205 02-09-2019 17:00:00 22.8 C 39 % 8.13 C
206 02-09-2019 17:05:00 22.8 C 39 % 8.13 C
207 02-09-2019 17:10:00 22.9 C 38 % 7.84 C
208 02-09-2019 17:15:00 22.9 C 39 % 8.22 C
209 02-09-2019 17:20:00 22.9 C 38 % 7.84 C
210 02-09-2019 17:25:00 23.1 C 38 % 8.02 C
211 02-09-2019 17:30:00 23.1 C 38 % 8.02 C
212 02-09-2019 17:35:00 23.1 C 37 % 7.63 C
213 02-09-2019 17:40:00 23.2 C 39 % 8.49 C
214 02-09-2019 17:45:00 23.3 C 38 % 8.19 C
215 02-09-2019 17:50:00 23.5 C 36 % 7.58 C
216 02-09-2019 17:55:00 23.5 C 36 % 7.58 C
217 02-09-2019 18:00:00 23.3 C 36 % 7.4 C
218 02-09-2019 18:05:00 23.1 C 37 % 7.63 C
219 02-09-2019 18:10:00 22.9 C 39 % 8.22 C
220 02-09-2019 18:15:00 23.1 C 36 % 7.23 C
221 02-09-2019 18:20:00 23.1 C 37 % 7.63 C
222 02-09-2019 18:25:00 23.2 C 38 % 8.11 C
223 02-09-2019 18:30:00 23.1 C 37 % 7.63 C
224 02-09-2019 18:35:00 23 C 37 % 7.54 C
225 02-09-2019 18:40:00 22.9 C 37 % 7.45 C
Sensor: Nr:Datum:Temp:Feuchte:Taupunkt:
Aussen-T/F 226 02-09-2019 18:45:00 22.8 C 37 % 7.36 C
227 02-09-2019 18:50:00 22.7 C 38 % 7.66 C
228 02-09-2019 18:55:00 22.7 C 39 % 8.04 C
229 02-09-2019 19:00:00 22.7 C 37 % 7.27 C
230 02-09-2019 19:05:00 22.7 C 38 % 7.66 C
231 02-09-2019 19:10:00 22.6 C 39 % 7.95 C
232 02-09-2019 19:15:00 22.3 C 40 % 8.06 C
233 02-09-2019 19:20:00 21.9 C 45 % 9.44 C
234 02-09-2019 19:25:00 21.2 C 47 % 9.45 C
235 02-09-2019 19:30:00 20.6 C 48 % 9.21 C
236 02-09-2019 19:35:00 19.8 C 49 % 8.79 C
237 02-09-2019 19:40:00 19.1 C 53 % 9.3 C
238 02-09-2019 19:45:00 18.4 C 54 % 8.93 C
239 02-09-2019 19:50:00 18 C 55 % 8.83 C
240 02-09-2019 19:55:00 17.6 C 56 % 8.73 C
241 02-09-2019 20:00:00 17.4 C 56 % 8.54 C
242 02-09-2019 20:05:00 17.3 C 56 % 8.45 C
243 02-09-2019 20:10:00 17.3 C 58 % 8.97 C
244 02-09-2019 20:15:00 17.2 C 55 % 8.09 C
245 02-09-2019 20:20:00 17.1 C 57 % 8.52 C
246 02-09-2019 20:25:00 17.1 C 56 % 8.26 C
247 02-09-2019 20:30:00 16.9 C 56 % 8.07 C
248 02-09-2019 20:35:00 16.7 C 56 % 7.89 C
249 02-09-2019 20:40:00 16.6 C 56 % 7.8 C
250 02-09-2019 20:45:00 16.5 C 57 % 7.96 C
Sensor: Nr:Datum:Temp:Feuchte:Taupunkt:
Aussen-T/F 251 02-09-2019 20:50:00 16.4 C 56 % 7.61 C
252 02-09-2019 20:55:00 16.3 C 57 % 7.77 C
253 02-09-2019 21:00:00 16.2 C 56 % 7.42 C
254 02-09-2019 21:05:00 16.1 C 56 % 7.33 C
255 02-09-2019 21:10:00 16 C 56 % 7.24 C
256 02-09-2019 21:15:00 15.9 C 58 % 7.66 C
257 02-09-2019 21:20:00 15.8 C 60 % 8.06 C
258 02-09-2019 21:25:00 15.5 C 61 % 8.02 C
259 02-09-2019 21:30:00 15.3 C 61 % 7.83 C
260 02-09-2019 21:35:00 15.1 C 62 % 7.88 C
261 02-09-2019 21:40:00 15 C 63 % 8.02 C
262 02-09-2019 21:45:00 14.8 C 65 % 8.29 C
263 02-09-2019 21:50:00 14.6 C 65 % 8.1 C
264 02-09-2019 21:55:00 14.4 C 65 % 7.91 C
265 02-09-2019 22:00:00 14.2 C 67 % 8.17 C
266 02-09-2019 22:05:00 13.9 C 68 % 8.1 C
267 02-09-2019 22:10:00 13.8 C 69 % 8.22 C
268 02-09-2019 22:15:00 13.6 C 69 % 8.03 C
269 02-09-2019 22:20:00 13.5 C 70 % 8.14 C
270 02-09-2019 22:25:00 13.4 C 71 % 8.26 C
271 02-09-2019 22:30:00 13.3 C 71 % 8.16 C
272 02-09-2019 22:35:00 13.2 C 70 % 7.86 C
273 02-09-2019 22:40:00 13.2 C 71 % 8.06 C
274 02-09-2019 22:45:00 13.2 C 72 % 8.27 C
275 02-09-2019 22:50:00 13.2 C 72 % 8.27 C
Sensor: Nr:Datum:Temp:Feuchte:Taupunkt:
Aussen-T/F 276 02-09-2019 22:55:00 13.2 C 72 % 8.27 C
277 02-09-2019 23:00:00 13.2 C 72 % 8.27 C
278 02-09-2019 23:05:00 13.2 C 72 % 8.27 C
279 02-09-2019 23:10:00 13.1 C 71 % 7.97 C
280 02-09-2019 23:15:00 13.1 C 72 % 8.17 C
281 02-09-2019 23:20:00 13.1 C 72 % 8.17 C
282 02-09-2019 23:25:00 13 C 73 % 8.28 C
283 02-09-2019 23:30:00 12.9 C 74 % 8.38 C
284 02-09-2019 23:35:00 12.9 C 73 % 8.18 C
285 02-09-2019 23:40:00 12.9 C 73 % 8.18 C
286 02-09-2019 23:45:00 12.8 C 73 % 8.09 C
287 02-09-2019 23:50:00 12.8 C 74 % 8.29 C
288 02-09-2019 23:55:00 12.8 C 74 % 8.29 C
289 03-09-2019 00:00:00 12.7 C 74 % 8.19 C
290 03-09-2019 00:05:00 12.7 C 74 % 8.19 C
291 03-09-2019 00:10:00 12.6 C 74 % 8.09 C
292 03-09-2019 00:15:00 12.5 C 74 % 8 C
293 03-09-2019 00:20:00 12.4 C 74 % 7.9 C
294 03-09-2019 00:25:00 12.4 C 75 % 8.1 C
295 03-09-2019 00:30:00 12.3 C 75 % 8 C
296 03-09-2019 00:35:00 12.3 C 75 % 8 C
297 03-09-2019 00:40:00 12.2 C 75 % 7.91 C
298 03-09-2019 00:45:00 12.2 C 76 % 8.1 C
299 03-09-2019 00:50:00 12.2 C 76 % 8.1 C
300 03-09-2019 00:55:00 12.2 C 76 % 8.1 C
Sensor: Nr:Datum:Temp:Feuchte:Taupunkt:
Aussen-T/F 301 03-09-2019 01:00:00 12.2 C 76 % 8.1 C
302 03-09-2019 01:05:00 12.2 C 76 % 8.1 C
303 03-09-2019 01:10:00 12.2 C 76 % 8.1 C
304 03-09-2019 01:15:00 12.2 C 77 % 8.29 C
305 03-09-2019 01:20:00 12.3 C 77 % 8.39 C
306 03-09-2019 01:25:00 12.3 C 77 % 8.39 C
307 03-09-2019 01:30:00 12.2 C 76 % 8.1 C
308 03-09-2019 01:35:00 12.2 C 77 % 8.29 C
309 03-09-2019 01:40:00 12.2 C 77 % 8.29 C
310 03-09-2019 01:45:00 12 C 76 % 7.91 C
311 03-09-2019 01:50:00 11.8 C 76 % 7.71 C
312 03-09-2019 01:55:00 11.7 C 77 % 7.81 C
313 03-09-2019 02:00:00 11.4 C 77 % 7.52 C
314 03-09-2019 02:05:00 11.3 C 78 % 7.61 C
315 03-09-2019 02:10:00 11.2 C 78 % 7.51 C
316 03-09-2019 02:15:00 11.1 C 78 % 7.41 C
317 03-09-2019 02:20:00 11 C 79 % 7.5 C
318 03-09-2019 02:25:00 10.9 C 79 % 7.41 C
319 03-09-2019 02:30:00 10.8 C 80 % 7.49 C
320 03-09-2019 02:35:00 10.7 C 80 % 7.4 C
321 03-09-2019 02:40:00 10.7 C 80 % 7.4 C
322 03-09-2019 02:45:00 10.6 C 80 % 7.3 C
323 03-09-2019 02:50:00 10.6 C 80 % 7.3 C
324 03-09-2019 02:55:00 10.4 C 80 % 7.1 C
325 03-09-2019 03:00:00 10.4 C 80 % 7.1 C
Sensor: Nr:Datum:Temp:Feuchte:Taupunkt:
Aussen-T/F 326 03-09-2019 03:05:00 10.4 C 81 % 7.28 C
327 03-09-2019 03:10:00 10.3 C 81 % 7.19 C
328 03-09-2019 03:15:00 10.2 C 81 % 7.09 C
329 03-09-2019 03:20:00 10.2 C 81 % 7.09 C
330 03-09-2019 03:25:00 10.2 C 82 % 7.27 C
331 03-09-2019 03:30:00 10.2 C 82 % 7.27 C
332 03-09-2019 03:35:00 10.1 C 82 % 7.17 C
333 03-09-2019 03:40:00 10.1 C 82 % 7.17 C
334 03-09-2019 03:45:00 10 C 82 % 7.07 C
335 03-09-2019 03:50:00 10 C 82 % 7.07 C
336 03-09-2019 03:55:00 10 C 83 % 7.25 C
337 03-09-2019 04:00:00 10.1 C 83 % 7.35 C
338 03-09-2019 04:05:00 10.1 C 84 % 7.52 C
339 03-09-2019 04:10:00 10.1 C 84 % 7.52 C
340 03-09-2019 04:15:00 10.1 C 84 % 7.52 C
341 03-09-2019 04:20:00 10.1 C 84 % 7.52 C
342 03-09-2019 04:25:00 10.1 C 84 % 7.52 C
343 03-09-2019 04:30:00 10.1 C 84 % 7.52 C
344 03-09-2019 04:35:00 10.1 C 84 % 7.52 C
345 03-09-2019 04:40:00 10.1 C 84 % 7.52 C
346 03-09-2019 04:45:00 10.1 C 84 % 7.52 C
347 03-09-2019 04:50:00 10.1 C 84 % 7.52 C
348 03-09-2019 04:55:00 9.9 C 83 % 7.15 C
349 03-09-2019 05:00:00 9.9 C 83 % 7.15 C
350 03-09-2019 05:05:00 9.7 C 83 % 6.96 C
Sensor: Nr:Datum:Temp:Feuchte:Taupunkt:
Aussen-T/F 351 03-09-2019 05:10:00 9.6 C 84 % 7.03 C
352 03-09-2019 05:15:00 9.5 C 84 % 6.94 C
353 03-09-2019 05:20:00 9.4 C 85 % 7.01 C
354 03-09-2019 05:25:00 9.4 C 85 % 7.01 C
355 03-09-2019 05:30:00 9.3 C 85 % 6.91 C
356 03-09-2019 05:35:00 9.2 C 85 % 6.81 C
357 03-09-2019 05:40:00 9.3 C 86 % 7.08 C
358 03-09-2019 05:45:00 9.3 C 87 % 7.25 C
359 03-09-2019 05:50:00 9.4 C 87 % 7.35 C
360 03-09-2019 05:55:00 9.4 C 87 % 7.35 C
361 03-09-2019 06:00:00 9.3 C 87 % 7.25 C
362 03-09-2019 06:05:00 9.3 C 87 % 7.25 C
363 03-09-2019 06:10:00 9.2 C 86 % 6.98 C
364 03-09-2019 06:15:00 9.1 C 86 % 6.89 C
365 03-09-2019 06:20:00 9 C 87 % 6.96 C
366 03-09-2019 06:25:00 8.9 C 87 % 6.86 C
367 03-09-2019 06:30:00 8.8 C 87 % 6.76 C
368 03-09-2019 06:35:00 8.8 C 87 % 6.76 C
369 03-09-2019 06:40:00 8.7 C 87 % 6.66 C
370 03-09-2019 06:45:00 8.7 C 88 % 6.83 C
371 03-09-2019 06:50:00 8.6 C 88 % 6.73 C
372 03-09-2019 06:55:00 8.6 C 88 % 6.73 C
373 03-09-2019 07:00:00 8.5 C 88 % 6.63 C
374 03-09-2019 07:05:00 8.6 C 89 % 6.89 C
375 03-09-2019 07:10:00 8.6 C 88 % 6.73 C
Sensor: Nr:Datum:Temp:Feuchte:Taupunkt:
Aussen-T/F 376 03-09-2019 07:15:00 8.6 C 89 % 6.89 C
377 03-09-2019 07:20:00 8.6 C 89 % 6.89 C
378 03-09-2019 07:25:00 8.7 C 89 % 6.99 C
379 03-09-2019 07:30:00 8.7 C 89 % 6.99 C
380 03-09-2019 07:35:00 8.7 C 89 % 6.99 C
381 03-09-2019 07:40:00 8.7 C 89 % 6.99 C
382 03-09-2019 07:45:00 8.7 C 89 % 6.99 C
383 03-09-2019 07:50:00 8.7 C 89 % 6.99 C
384 03-09-2019 07:55:00 8.8 C 89 % 7.09 C
385 03-09-2019 08:00:00 8.8 C 89 % 7.09 C
386 03-09-2019 08:05:00 8.8 C 89 % 7.09 C
387 03-09-2019 08:10:00 8.8 C 89 % 7.09 C
388 03-09-2019 08:15:00 8.9 C 90 % 7.35 C
389 03-09-2019 08:20:00 8.9 C 90 % 7.35 C
390 03-09-2019 08:25:00 9 C 90 % 7.45 C
391 03-09-2019 08:30:00 9.1 C 90 % 7.55 C
392 03-09-2019 08:35:00 9.2 C 90 % 7.65 C
393 03-09-2019 08:40:00 9.3 C 90 % 7.75 C
394 03-09-2019 08:45:00 9.3 C 90 % 7.75 C
395 03-09-2019 08:50:00 9.4 C 90 % 7.85 C
396 03-09-2019 08:55:00 9.5 C 90 % 7.94 C
397 03-09-2019 09:00:00 9.6 C 90 % 8.04 C
398 03-09-2019 09:05:00 9.7 C 90 % 8.14 C
399 03-09-2019 09:10:00 9.8 C 90 % 8.24 C
400 03-09-2019 09:15:00 9.9 C 90 % 8.34 C
Sensor: Nr:Datum:Temp:Feuchte:Taupunkt:
Aussen-T/F 401 03-09-2019 09:20:00 10.1 C 89 % 8.37 C
402 03-09-2019 09:25:00 10.2 C 89 % 8.47 C
403 03-09-2019 09:30:00 10.3 C 89 % 8.57 C
404 03-09-2019 09:35:00 10.6 C 89 % 8.86 C
405 03-09-2019 09:40:00 10.8 C 88 % 8.89 C
406 03-09-2019 09:45:00 11 C 88 % 9.09 C
407 03-09-2019 09:50:00 11.2 C 88 % 9.29 C
408 03-09-2019 09:55:00 11.3 C 87 % 9.22 C
409 03-09-2019 10:00:00 11.6 C 87 % 9.51 C
410 03-09-2019 10:05:00 11.7 C 86 % 9.44 C
411 03-09-2019 10:10:00 12 C 86 % 9.73 C
412 03-09-2019 10:15:00 12.3 C 85 % 9.85 C
413 03-09-2019 10:20:00 12.7 C 85 % 10.25 C
414 03-09-2019 10:25:00 13 C 84 % 10.36 C
415 03-09-2019 10:30:00 13.3 C 82 % 10.3 C
416 03-09-2019 10:35:00 13.6 C 80 % 10.22 C
417 03-09-2019 10:40:00 14.1 C 78 % 10.33 C
418 03-09-2019 10:45:00 14.5 C 77 % 10.52 C
419 03-09-2019 10:50:00 14.8 C 75 % 10.42 C
420 03-09-2019 10:55:00 15.1 C 74 % 10.5 C
421 03-09-2019 11:00:00 15.5 C 71 % 10.27 C
422 03-09-2019 11:05:00 15.8 C 70 % 10.34 C
423 03-09-2019 11:10:00 16.1 C 70 % 10.63 C
424 03-09-2019 11:15:00 16.3 C 67 % 10.17 C
425 03-09-2019 11:20:00 16.7 C 65 % 10.09 C
Sensor: Nr:Datum:Temp:Feuchte:Taupunkt:
Aussen-T/F 426 03-09-2019 11:25:00 17.2 C 63 % 10.1 C
427 03-09-2019 11:30:00 17.7 C 61 % 10.09 C
428 03-09-2019 11:35:00 18.1 C 61 % 10.47 C
429 03-09-2019 11:40:00 18.3 C 60 % 10.41 C
430 03-09-2019 11:45:00 18.5 C 58 % 10.09 C
431 03-09-2019 11:50:00 18.8 C 57 % 10.11 C
432 03-09-2019 11:55:00 19.1 C 56 % 10.12 C
433 03-09-2019 12:00:00 19.3 C 57 % 10.58 C
434 03-09-2019 12:05:00 19.5 C 54 % 9.95 C
435 03-09-2019 12:10:00 19.6 C 55 % 10.32 C
436 03-09-2019 12:15:00 19.7 C 56 % 10.68 C
437 03-09-2019 12:20:00 19.8 C 54 % 10.23 C
438 03-09-2019 12:25:00 19.9 C 53 % 10.04 C
439 03-09-2019 12:30:00 20 C 53 % 10.14 C
440 03-09-2019 12:35:00 20.1 C 52 % 9.94 C
441 03-09-2019 12:40:00 20.3 C 53 % 10.41 C
442 03-09-2019 12:45:00 20.3 C 52 % 10.13 C
443 03-09-2019 12:50:00 20.4 C 51 % 9.93 C
444 03-09-2019 12:55:00 20.6 C 52 % 10.41 C
445 03-09-2019 13:00:00 20.8 C 53 % 10.88 C
446 03-09-2019 13:05:00 20.8 C 50 % 10 C
447 03-09-2019 13:10:00 20.8 C 51 % 10.3 C
448 03-09-2019 13:15:00 21 C 50 % 10.19 C
449 03-09-2019 13:20:00 21.2 C 50 % 10.37 C
450 03-09-2019 13:25:00 21.1 C 50 % 10.28 C
Sensor: Nr:Datum:Temp:Feuchte:Taupunkt:
Aussen-T/F 451 03-09-2019 13:30:00 21.2 C 50 % 10.37 C
452 03-09-2019 13:35:00 21.4 C 48 % 9.94 C
453 03-09-2019 13:40:00 21.6 C 50 % 10.74 C
454 03-09-2019 13:45:00 21.6 C 49 % 10.44 C
455 03-09-2019 13:50:00 21.7 C 48 % 10.22 C
456 03-09-2019 13:55:00 21.8 C 47 % 9.99 C
457 03-09-2019 14:00:00 21.9 C 46 % 9.77 C
458 03-09-2019 14:05:00 22.1 C 46 % 9.95 C
459 03-09-2019 14:10:00 22.2 C 47 % 10.36 C
460 03-09-2019 14:15:00 22.3 C 45 % 9.8 C
461 03-09-2019 14:20:00 22.3 C 46 % 10.13 C
462 03-09-2019 14:25:00 22.6 C 46 % 10.4 C
463 03-09-2019 14:30:00 22.7 C 45 % 10.16 C
464 03-09-2019 14:35:00 22.7 C 45 % 10.16 C
465 03-09-2019 14:40:00 22.9 C 46 % 10.67 C
466 03-09-2019 14:45:00 23.2 C 45 % 10.62 C
467 03-09-2019 14:50:00 23.3 C 44 % 10.37 C
468 03-09-2019 14:55:00 23.5 C 45 % 10.89 C
469 03-09-2019 15:00:00 23.6 C 45 % 10.98 C
470 03-09-2019 15:05:00 23.5 C 45 % 10.89 C
471 03-09-2019 15:10:00 23.6 C 45 % 10.98 C
472 03-09-2019 15:15:00 23.7 C 45 % 11.07 C
473 03-09-2019 15:20:00 23.8 C 45 % 11.16 C
474 03-09-2019 15:25:00 24 C 45 % 11.34 C
475 03-09-2019 15:30:00 24.2 C 45 % 11.52 C
Sensor: Nr:Datum:Temp:Feuchte:Taupunkt:
Aussen-T/F 476 03-09-2019 15:35:00 24.2 C 45 % 11.52 C
477 03-09-2019 15:40:00 23.9 C 47 % 11.91 C
478 03-09-2019 15:45:00 23.7 C 47 % 11.73 C
479 03-09-2019 15:50:00 23.5 C 48 % 11.86 C
480 03-09-2019 15:55:00 23.3 C 48 % 11.68 C
481 03-09-2019 16:00:00 23.3 C 50 % 12.3 C
482 03-09-2019 16:05:00 23.3 C 49 % 11.99 C
483 03-09-2019 16:10:00 23.2 C 50 % 12.21 C
484 03-09-2019 16:15:00 23.2 C 49 % 11.9 C
485 03-09-2019 16:20:00 23.1 C 50 % 12.11 C
486 03-09-2019 16:25:00 23.1 C 51 % 12.42 C
487 03-09-2019 16:30:00 23.6 C 51 % 12.88 C
488 03-09-2019 16:35:00 24.1 C 49 % 12.72 C
489 03-09-2019 16:40:00 24.3 C 49 % 12.91 C
490 03-09-2019 16:45:00 24.2 C 49 % 12.81 C
491 03-09-2019 16:50:00 23.8 C 50 % 12.76 C
492 03-09-2019 16:55:00 23.8 C 51 % 13.06 C
493 03-09-2019 17:00:00 23.7 C 51 % 12.97 C
494 03-09-2019 17:05:00 23.3 C 51 % 12.6 C
495 03-09-2019 17:10:00 23.1 C 52 % 12.71 C
496 03-09-2019 17:15:00 23.3 C 52 % 12.9 C
497 03-09-2019 17:20:00 23.6 C 52 % 13.17 C
498 03-09-2019 17:25:00 23.7 C 51 % 12.97 C
499 03-09-2019 17:30:00 23.8 C 51 % 13.06 C
500 03-09-2019 17:35:00 23.8 C 50 % 12.76 C
Sensor: Nr:Datum:Temp:Feuchte:Taupunkt:
Aussen-T/F 501 03-09-2019 17:40:00 23.9 C 51 % 13.15 C
502 03-09-2019 17:45:00 23.9 C 50 % 12.85 C
503 03-09-2019 17:50:00 23.9 C 50 % 12.85 C
504 03-09-2019 17:55:00 23.8 C 50 % 12.76 C
505 03-09-2019 18:00:00 23.7 C 51 % 12.97 C
506 03-09-2019 18:05:00 23.6 C 51 % 12.88 C
507 03-09-2019 18:10:00 23.8 C 51 % 13.06 C
508 03-09-2019 18:15:00 23.8 C 51 % 13.06 C
509 03-09-2019 18:20:00 23.6 C 52 % 13.17 C
510 03-09-2019 18:25:00 23.4 C 52 % 12.99 C
511 03-09-2019 18:30:00 23.2 C 52 % 12.8 C
512 03-09-2019 18:35:00 23.1 C 53 % 13 C
513 03-09-2019 18:40:00 22.9 C 54 % 13.1 C
514 03-09-2019 18:45:00 22.8 C 54 % 13.01 C
515 03-09-2019 18:50:00 22.6 C 54 % 12.83 C
516 03-09-2019 18:55:00 22.2 C 56 % 13.01 C
517 03-09-2019 19:00:00 21.8 C 56 % 12.64 C
518 03-09-2019 19:05:00 21.6 C 57 % 12.72 C
519 03-09-2019 19:10:00 21.4 C 58 % 12.8 C
520 03-09-2019 19:15:00 21.4 C 58 % 12.8 C
521 03-09-2019 19:20:00 21.4 C 59 % 13.06 C
522 03-09-2019 19:25:00 21.4 C 59 % 13.06 C
523 03-09-2019 19:30:00 21.3 C 58 % 12.71 C
524 03-09-2019 19:35:00 21.1 C 59 % 12.78 C
525 03-09-2019 19:40:00 20.8 C 59 % 12.5 C
Sensor: Nr:Datum:Temp:Feuchte:Taupunkt:
Aussen-T/F 526 03-09-2019 19:45:00 20.6 C 60 % 12.57 C
527 03-09-2019 19:50:00 20.4 C 61 % 12.63 C
528 03-09-2019 19:55:00 20.2 C 61 % 12.44 C
529 03-09-2019 20:00:00 20.1 C 62 % 12.6 C
530 03-09-2019 20:05:00 19.9 C 62 % 12.41 C
531 03-09-2019 20:10:00 19.7 C 63 % 12.46 C
532 03-09-2019 20:15:00 19.6 C 64 % 12.61 C
533 03-09-2019 20:20:00 19.4 C 64 % 12.42 C
534 03-09-2019 20:25:00 19.2 C 65 % 12.47 C
535 03-09-2019 20:30:00 18.9 C 66 % 12.41 C
536 03-09-2019 20:35:00 18.6 C 67 % 12.36 C
537 03-09-2019 20:40:00 18.2 C 68 % 12.2 C
538 03-09-2019 20:45:00 17.9 C 69 % 12.14 C
539 03-09-2019 20:50:00 17.6 C 70 % 12.07 C
540 03-09-2019 20:55:00 17.3 C 71 % 12 C
541 03-09-2019 21:00:00 17.1 C 72 % 12.02 C
542 03-09-2019 21:05:00 16.9 C 73 % 12.03 C
543 03-09-2019 21:10:00 16.8 C 73 % 11.94 C
544 03-09-2019 21:15:00 16.6 C 74 % 11.95 C
545 03-09-2019 21:20:00 16.4 C 74 % 11.76 C
546 03-09-2019 21:25:00 16.3 C 75 % 11.86 C
547 03-09-2019 21:30:00 16.2 C 76 % 11.97 C
548 03-09-2019 21:35:00 16.1 C 76 % 11.87 C
549 03-09-2019 21:40:00 16 C 76 % 11.77 C
550 03-09-2019 21:45:00 15.9 C 77 % 11.88 C
Sensor: Nr:Datum:Temp:Feuchte:Taupunkt:
Aussen-T/F 551 03-09-2019 21:50:00 15.8 C 77 % 11.78 C
552 03-09-2019 21:55:00 15.8 C 77 % 11.78 C
553 03-09-2019 22:00:00 15.7 C 78 % 11.88 C
554 03-09-2019 22:05:00 15.7 C 78 % 11.88 C
555 03-09-2019 22:10:00 15.6 C 78 % 11.78 C
556 03-09-2019 22:15:00 15.6 C 78 % 11.78 C
557 03-09-2019 22:20:00 15.5 C 79 % 11.88 C
558 03-09-2019 22:25:00 15.4 C 79 % 11.78 C
559 03-09-2019 22:30:00 15.3 C 79 % 11.68 C
560 03-09-2019 22:35:00 15.2 C 80 % 11.78 C
561 03-09-2019 22:40:00 15.2 C 80 % 11.78 C
562 03-09-2019 22:45:00 15.1 C 80 % 11.68 C
563 03-09-2019 22:50:00 14.9 C 81 % 11.67 C
564 03-09-2019 22:55:00 14.8 C 81 % 11.57 C
565 03-09-2019 23:00:00 14.7 C 81 % 11.48 C
566 03-09-2019 23:05:00 14.6 C 82 % 11.56 C
567 03-09-2019 23:10:00 14.4 C 82 % 11.37 C
568 03-09-2019 23:15:00 14.3 C 82 % 11.27 C
569 03-09-2019 23:20:00 14.2 C 83 % 11.36 C
570 03-09-2019 23:25:00 14.1 C 83 % 11.26 C
571 03-09-2019 23:30:00 13.9 C 84 % 11.24 C
572 03-09-2019 23:35:00 13.9 C 84 % 11.24 C
573 03-09-2019 23:40:00 13.8 C 84 % 11.15 C
574 03-09-2019 23:45:00 13.7 C 85 % 11.23 C
575 03-09-2019 23:50:00 13.6 C 85 % 11.13 C
Sensor: Nr:Datum:Temp:Feuchte:Taupunkt:
Aussen-T/F 576 03-09-2019 23:55:00 13.4 C 85 % 10.93 C

Legende:
   Min
   Max


Maximal/Minimal-Werte vom 02.09.2019 - 03.09.2019

Sensor Min Max Avg
Temp
(Aussen-T/F)
8.5 °C
03-09-2019  07:00:00
24.3 °C
03-09-2019  16:40:00
15.56 °C
Feuchte
(Aussen-T/F)
36 %
02-09-2019  17:50:00
93 %
02-09-2019  08:05:00
69.13 %
Taupunkt
(Aussen-T/F)
6.63 C
03-09-2019  07:00:00
13.17 C
03-09-2019  17:20:00
9.32 C

Die Daten stammen von einer Davis Vantage Pro 2 Wetter-Station und werden unter Linux mit der Software wview2wettercgi und aufbereitet. Alle Angaben erfolgen ohne Gewähr für ihre Vollständigkeit oder Richtigkeit.
Kontakt: Rainer Krienke krienke@uni-koblenz.de . Meine Webseiten an der Uni Koblenz oder privat.
Version: $Revision: 0.78 $